Time;durP1;ratioP1;P1;durP2;ratioP2;P2;SDS_P1;SDS_P2;PMS_P1;PMS_P2;Temp;Humidity;BMP_temperature;BMP_pressure;BME280_temperature;BME280_humidity;BME280_pressure;Samples;Min_cycle;Max_cycle;Signal;HPM_P1;HPM_P2
2022/06/10 00:00:25;;;;;;;1.67;1.30;;;13.10;98.00;;;;;;5014061;28;20992;-71
2022/06/10 00:02:53;;;;;;;2.33;1.60;;;13.00;98.00;;;;;;5014119;28;20456;-70
2022/06/10 00:05:23;;;;;;;1.60;1.23;;;13.00;98.00;;;;;;5014083;28;20494;-71
2022/06/10 00:07:51;;;;;;;1.60;1.33;;;13.10;98.00;;;;;;5013905;28;20506;-70
2022/06/10 00:10:20;;;;;;;1.40;1.10;;;13.30;98.00;;;;;;5013849;28;20468;-70
2022/06/10 00:12:50;;;;;;;1.43;1.40;;;13.20;98.00;;;;;;5013832;28;20486;-70
2022/06/10 00:15:18;;;;;;;1.20;1.10;;;13.10;98.00;;;;;;5014050;28;20459;-70
2022/06/10 00:17:46;;;;;;;1.27;1.23;;;13.00;98.00;;;;;;5013728;28;20818;-70
2022/06/10 00:20:15;;;;;;;1.20;1.10;;;13.00;98.00;;;;;;5013628;28;20465;-70
2022/06/10 00:22:42;;;;;;;1.30;1.30;;;12.90;98.00;;;;;;5013531;28;20500;-70
2022/06/10 00:25:10;;;;;;;1.47;1.30;;;12.90;98.00;;;;;;5012511;28;20455;-70
2022/06/10 00:27:37;;;;;;;1.50;1.40;;;12.90;98.00;;;;;;5013388;28;20482;-70
2022/06/10 00:30:08;;;;;;;1.20;1.10;;;13.00;98.00;;;;;;5013424;28;20453;-70
2022/06/10 00:32:35;;;;;;;1.40;1.40;;;12.90;98.00;;;;;;5013130;28;20460;-70
2022/06/10 00:35:03;;;;;;;1.30;1.20;;;12.80;98.00;;;;;;5013346;28;20469;-70
2022/06/10 00:37:30;;;;;;;1.20;1.10;;;12.80;98.00;;;;;;5012059;28;20466;-70
2022/06/10 00:40:05;;;;;;;1.50;1.30;;;12.60;98.00;;;;;;5013447;28;20476;-70
2022/06/10 00:42:35;;;;;;;1.23;1.20;;;12.60;98.00;;;;;;5013492;28;20557;-70
2022/06/10 00:45:04;;;;;;;1.53;1.40;;;12.70;98.00;;;;;;5013185;28;20546;-70
2022/06/10 00:47:36;;;;;;;1.60;1.20;;;12.80;98.00;;;;;;5013522;28;20491;-70
2022/06/10 00:50:17;;;;;;;1.40;1.23;;;12.80;98.00;;;;;;5013071;28;20461;-70
2022/06/10 00:52:51;;;;;;;1.37;1.13;;;12.80;98.00;;;;;;4997184;28;20465;-70
2022/06/10 00:55:28;;;;;;;1.40;1.20;;;12.60;98.00;;;;;;5013168;28;20469;-70
2022/06/10 00:58:01;;;;;;;1.87;1.33;;;12.60;98.00;;;;;;5013126;28;21005;-71
2022/06/10 01:00:29;;;;;;;2.00;1.90;;;12.70;98.00;;;;;;5013028;28;20840;-71
2022/06/10 01:02:58;;;;;;;1.60;1.20;;;12.60;98.00;;;;;;4995607;28;20456;-71
2022/06/10 01:05:28;;;;;;;1.20;1.10;;;12.50;98.00;;;;;;4995564;28;20466;-71
2022/06/10 01:08:00;;;;;;;1.90;1.37;;;12.50;98.00;;;;;;5012611;28;20483;-71
2022/06/10 01:10:28;;;;;;;1.57;1.20;;;12.60;98.00;;;;;;5012917;28;20468;-70
2022/06/10 01:13:17;;;;;;;2.60;1.83;;;12.50;98.00;;;;;;5012698;28;20458;-71
2022/06/10 01:15:53;;;;;;;1.40;1.40;;;12.40;98.00;;;;;;4996016;28;20459;-71
2022/06/10 01:18:35;;;;;;;1.50;1.40;;;12.40;98.00;;;;;;5012499;28;20976;-72
2022/06/10 01:21:15;;;;;;;1.23;1.03;;;12.30;98.00;;;;;;5012566;28;20462;-71
2022/06/10 01:24:35;;;;;;;1.40;1.10;;;12.40;98.00;;;;;;5012575;28;20456;-73
2022/06/10 01:30:58;;;;;;;1.40;1.30;;;12.30;98.00;;;;;;4997528;28;21046;-71
2022/06/10 01:33:39;;;;;;;1.40;1.10;;;12.20;98.00;;;;;;4978874;28;20460;-72
2022/06/10 01:36:15;;;;;;;1.50;1.33;;;12.30;98.00;;;;;;5011997;28;20468;-71
2022/06/10 01:38:47;;;;;;;1.40;1.10;;;12.30;98.00;;;;;;5012247;28;20839;-72
2022/06/10 01:41:33;;;;;;;1.40;1.30;;;12.30;98.00;;;;;;5012208;28;20501;-72
2022/06/10 01:44:12;;;;;;;4.23;1.60;;;12.30;98.00;;;;;;5012445;28;20461;-71
2022/06/10 01:46:47;;;;;;;2.23;1.47;;;12.20;98.00;;;;;;5012160;28;20513;-71
2022/06/10 01:49:21;;;;;;;1.30;1.10;;;12.30;98.00;;;;;;5012187;28;20490;-72
2022/06/10 01:51:57;;;;;;;1.77;1.30;;;12.30;98.00;;;;;;4995063;28;20555;-72
2022/06/10 01:54:33;;;;;;;1.40;1.10;;;12.20;98.00;;;;;;5012140;28;20468;-72
2022/06/10 01:57:04;;;;;;;1.40;1.20;;;12.00;98.00;;;;;;5011966;28;20466;-71
2022/06/10 01:59:36;;;;;;;1.20;1.10;;;12.00;98.00;;;;;;5011952;28;20454;-71
2022/06/10 02:02:08;;;;;;;1.30;1.13;;;12.00;98.00;;;;;;5011932;28;20470;-72
2022/06/10 02:04:41;;;;;;;1.50;1.47;;;11.90;98.00;;;;;;5012181;28;20520;-70
2022/06/10 02:07:14;;;;;;;1.20;1.10;;;11.90;98.00;;;;;;5011703;28;20481;-72
2022/06/10 02:09:47;;;;;;;1.57;1.23;;;11.90;98.00;;;;;;5011783;28;20482;-71
2022/06/10 02:12:21;;;;;;;1.20;1.10;;;11.90;98.00;;;;;;5011887;28;20463;-72
2022/06/10 02:14:54;;;;;;;1.53;1.33;;;12.10;98.00;;;;;;5011632;28;20494;-71
2022/06/10 02:17:26;;;;;;;1.83;1.50;;;12.10;98.00;;;;;;5011769;28;20841;-71
2022/06/10 02:19:57;;;;;;;1.50;1.40;;;12.00;98.00;;;;;;4993947;28;20985;-71
2022/06/10 02:22:31;;;;;;;1.43;1.40;;;12.00;98.00;;;;;;5011689;28;20466;-72
2022/06/10 02:25:03;;;;;;;1.40;1.10;;;11.90;98.00;;;;;;5011518;28;20459;-72
2022/06/10 02:27:38;;;;;;;1.67;1.20;;;11.80;98.00;;;;;;5011482;28;20484;-72
2022/06/10 02:30:09;;;;;;;1.20;1.10;;;12.00;98.00;;;;;;5011230;28;20471;-72
2022/06/10 02:32:39;;;;;;;1.50;1.30;;;12.00;98.00;;;;;;5011540;28;20451;-72
2022/06/10 02:35:09;;;;;;;1.20;1.20;;;12.00;98.00;;;;;;5011499;28;20466;-71
2022/06/10 02:37:46;;;;;;;1.30;1.30;;;11.90;98.00;;;;;;5011492;28;20457;-71
2022/06/10 02:40:20;;;;;;;1.30;1.20;;;12.00;98.00;;;;;;5011525;28;20864;-71
2022/06/10 02:42:55;;;;;;;1.20;1.07;;;11.90;98.00;;;;;;4994312;28;20464;-71
2022/06/10 02:45:30;;;;;;;1.33;1.10;;;11.70;98.00;;;;;;5011223;28;20811;-71
2022/06/10 02:48:05;;;;;;;1.40;1.33;;;11.60;98.00;;;;;;5014005;28;20508;-71
2022/06/10 02:50:33;;;;;;;1.50;1.40;;;11.70;98.00;;;;;;5015689;28;20458;-71
2022/06/10 02:53:02;;;;;;;1.57;1.10;;;11.70;98.00;;;;;;5015522;28;20462;-71
2022/06/10 02:55:31;;;;;;;1.60;1.17;;;11.70;98.00;;;;;;5015265;28;20461;-71
2022/06/10 03:01:20;;;;;;;1.83;1.30;;;11.50;98.00;;;;;;5015342;28;20497;-71
2022/06/10 03:04:12;;;;;;;1.43;1.40;;;11.40;98.00;;;;;;5015066;28;20489;-72
2022/06/10 03:06:53;;;;;;;1.27;1.17;;;11.50;98.00;;;;;;5015212;28;20499;-71
2022/06/10 03:09:27;;;;;;;2.87;1.63;;;11.50;98.00;;;;;;5014983;28;20477;-71
2022/06/10 03:12:06;;;;;;;1.20;1.00;;;11.50;98.00;;;;;;5014898;28;20942;-70
2022/06/10 03:14:43;;;;;;;1.43;1.20;;;11.50;98.00;;;;;;5015010;28;20461;-71
2022/06/10 03:17:20;;;;;;;1.50;1.30;;;11.50;98.00;;;;;;5014919;28;20472;-71
2022/06/10 03:20:02;;;;;;;1.30;1.10;;;11.50;98.00;;;;;;5014861;28;20971;-71
2022/06/10 03:22:47;;;;;;;1.83;1.80;;;11.70;98.00;;;;;;5014780;28;20456;-71
2022/06/10 03:25:23;;;;;;;2.07;1.93;;;11.70;98.00;;;;;;5014785;28;20466;-72
2022/06/10 03:28:00;;;;;;;1.40;1.30;;;11.70;98.00;;;;;;5014656;28;20494;-72
2022/06/10 03:30:32;;;;;;;1.30;1.23;;;11.80;98.00;;;;;;5014641;28;20458;-71
2022/06/10 03:33:07;;;;;;;1.40;1.20;;;11.90;98.00;;;;;;5014638;28;20461;-72
2022/06/10 03:35:39;;;;;;;1.90;1.33;;;11.80;98.00;;;;;;5014565;28;20463;-73
2022/06/10 03:38:07;;;;;;;1.20;1.00;;;11.90;98.00;;;;;;5014451;28;20507;-71
2022/06/10 03:40:40;;;;;;;1.20;1.10;;;11.90;98.00;;;;;;5014459;28;20809;-71
2022/06/10 03:43:10;;;;;;;1.90;1.33;;;11.60;98.00;;;;;;5014191;28;20471;-72
2022/06/10 03:45:41;;;;;;;1.90;1.33;;;11.40;98.00;;;;;;5014561;28;20461;-71
2022/06/10 03:48:11;;;;;;;1.30;1.03;;;11.30;98.00;;;;;;5014402;28;20488;-73
2022/06/10 03:50:40;;;;;;;1.60;1.17;;;11.20;98.00;;;;;;4997549;28;20469;-71
2022/06/10 03:53:08;;;;;;;1.60;1.37;;;11.10;98.00;;;;;;5014399;28;20460;-71
2022/06/10 03:55:35;;;;;;;1.70;1.37;;;11.20;98.00;;;;;;5013864;28;20476;-71
2022/06/10 03:58:03;;;;;;;1.30;1.20;;;11.40;98.00;;;;;;5014050;28;20474;-71
2022/06/10 04:00:30;;;;;;;1.50;1.30;;;11.50;98.00;;;;;;4996618;28;20958;-71
2022/06/10 04:02:58;;;;;;;2.20;1.23;;;11.70;98.00;;;;;;5014064;28;20474;-72
2022/06/10 04:05:25;;;;;;;1.20;1.20;;;11.80;98.00;;;;;;5014023;28;20474;-72
2022/06/10 04:07:56;;;;;;;1.50;1.47;;;11.90;98.00;;;;;;5013680;28;20455;-71
2022/06/10 04:10:25;;;;;;;1.70;1.30;;;12.10;98.00;;;;;;5013790;28;20459;-71
2022/06/10 04:12:52;;;;;;;1.93;1.30;;;11.90;98.00;;;;;;5013735;28;20466;-71
2022/06/10 04:15:20;;;;;;;1.30;1.20;;;11.60;98.00;;;;;;5013933;28;20617;-70
2022/06/10 04:17:50;;;;;;;1.70;1.37;;;11.60;98.00;;;;;;5013702;28;20461;-71
2022/06/10 04:20:20;;;;;;;1.30;1.23;;;11.40;98.00;;;;;;5013678;28;20478;-72
2022/06/10 04:22:47;;;;;;;1.30;1.30;;;11.40;98.00;;;;;;4996252;28;20468;-71
2022/06/10 04:25:15;;;;;;;2.07;1.50;;;11.40;98.00;;;;;;5013543;28;20458;-71
2022/06/10 04:27:43;;;;;;;3.83;1.40;;;11.40;98.00;;;;;;5013582;28;20478;-72
2022/06/10 04:30:22;;;;;;;1.50;1.20;;;11.40;98.00;;;;;;5013470;28;20490;-72
2022/06/10 04:32:49;;;;;;;1.40;1.23;;;11.40;98.00;;;;;;4997032;28;20457;-72
2022/06/10 04:35:16;;;;;;;1.23;1.13;;;11.50;98.00;;;;;;5013444;28;20457;-71
2022/06/10 04:37:44;;;;;;;1.63;1.10;;;11.50;98.00;;;;;;5013382;28;20466;-72
2022/06/10 04:40:13;;;;;;;2.23;1.63;;;11.60;98.00;;;;;;5013221;28;20987;-71
2022/06/10 04:42:45;;;;;;;4.47;1.70;;;11.50;98.00;;;;;;5013272;28;20515;-71
2022/06/10 04:45:13;;;;;;;1.50;1.30;;;11.60;98.00;;;;;;5013350;28;20805;-72
2022/06/10 04:47:40;;;;;;;1.50;1.20;;;11.60;98.00;;;;;;5013287;28;20464;-71
2022/06/10 04:50:09;;;;;;;1.40;1.10;;;11.70;98.00;;;;;;5013168;28;20512;-71
2022/06/10 04:52:37;;;;;;;2.03;1.47;;;11.80;98.00;;;;;;5013293;28;21007;-72
2022/06/10 04:55:05;;;;;;;1.20;1.20;;;11.80;98.00;;;;;;5012904;28;20833;-72
2022/06/10 04:57:33;;;;;;;1.40;1.30;;;11.80;98.00;;;;;;5013059;28;20498;-71
2022/06/10 05:00:02;;;;;;;1.20;1.20;;;12.00;98.00;;;;;;5012869;28;20462;-70
2022/06/10 05:02:29;;;;;;;1.70;1.47;;;12.10;98.00;;;;;;5013121;28;20525;-71
2022/06/10 05:04:57;;;;;;;2.03;1.37;;;12.20;98.00;;;;;;5012886;28;20522;-71
2022/06/10 05:07:24;;;;;;;1.37;1.33;;;12.20;98.00;;;;;;5012959;28;20470;-71
2022/06/10 05:09:52;;;;;;;1.20;1.00;;;12.30;98.00;;;;;;4994993;28;20531;-71
2022/06/10 05:12:20;;;;;;;1.43;1.40;;;12.40;98.00;;;;;;4996334;28;20481;-73
2022/06/10 05:14:47;;;;;;;1.47;1.30;;;12.50;98.00;;;;;;5012960;28;20826;-72
2022/06/10 05:17:16;;;;;;;2.17;1.70;;;12.70;98.00;;;;;;5012672;28;20522;-71
2022/06/10 05:19:46;;;;;;;1.30;1.10;;;12.80;98.00;;;;;;5012407;28;20466;-70
2022/06/10 05:22:14;;;;;;;1.60;1.30;;;12.90;98.00;;;;;;5012734;28;20545;-71
2022/06/10 05:24:42;;;;;;;1.67;1.43;;;13.00;98.00;;;;;;4994949;28;20457;-71
2022/06/10 05:27:09;;;;;;;1.83;1.50;;;13.10;98.00;;;;;;4995164;28;20827;-70
2022/06/10 05:29:38;;;;;;;1.83;1.43;;;13.10;98.00;;;;;;4993818;28;20866;-71
2022/06/10 05:32:06;;;;;;;1.20;1.10;;;13.30;98.00;;;;;;5012662;28;20798;-70
2022/06/10 05:37:21;;;;;;;1.40;1.20;;;13.60;98.00;;;;;;5012065;28;20451;-71
2022/06/10 05:39:49;;;;;;;1.43;1.23;;;13.60;98.00;;;;;;5012020;28;20516;-71
2022/06/10 05:42:17;;;;;;;1.50;1.30;;;13.70;98.00;;;;;;5012204;28;20460;-71
2022/06/10 05:44:46;;;;;;;2.17;1.30;;;13.70;98.00;;;;;;5012134;28;20554;-70
2022/06/10 05:47:17;;;;;;;1.40;1.20;;;13.70;98.00;;;;;;5012208;28;20969;-71
2022/06/10 05:49:53;;;;;;;1.57;1.47;;;13.70;98.00;;;;;;5012193;28;20564;-71
2022/06/10 05:52:24;;;;;;;1.50;1.20;;;13.70;98.00;;;;;;5012114;28;20510;-71
2022/06/10 05:54:53;;;;;;;1.23;1.13;;;13.80;98.00;;;;;;5011757;28;20477;-70
2022/06/10 05:57:21;;;;;;;1.43;1.20;;;14.00;98.00;;;;;;4994692;28;20466;-70
2022/06/10 05:59:49;;;;;;;1.40;1.10;;;14.00;98.00;;;;;;5011822;28;20466;-70
2022/06/10 06:02:17;;;;;;;2.60;1.57;;;14.10;98.00;;;;;;5011934;28;20465;-77
2022/06/10 06:04:45;;;;;;;3.60;1.40;;;14.20;98.00;;;;;;5011614;28;20453;-77
2022/06/10 06:07:18;;;;;;;1.50;1.43;;;14.40;98.00;;;;;;5011981;28;20453;-76
2022/06/10 06:09:45;;;;;;;2.80;1.60;;;14.60;98.00;;;;;;5011529;28;20502;-76
2022/06/10 06:12:13;;;;;;;1.67;1.40;;;14.70;98.00;;;;;;5011752;28;20463;-77
2022/06/10 06:14:41;;;;;;;1.70;1.30;;;14.70;98.00;;;;;;4994427;28;20466;-76
2022/06/10 06:17:08;;;;;;;1.90;1.27;;;14.70;98.00;;;;;;4994274;28;20932;-77
2022/06/10 06:19:36;;;;;;;1.47;1.27;;;14.80;98.00;;;;;;5011499;28;20990;-76
2022/06/10 06:22:05;;;;;;;1.87;1.40;;;14.90;98.00;;;;;;5011009;28;20469;-76
2022/06/10 06:24:33;;;;;;;1.80;1.37;;;15.00;98.00;;;;;;5011588;28;20454;-76
2022/06/10 06:27:01;;;;;;;1.50;1.30;;;15.30;98.00;;;;;;5011681;28;20508;-78
2022/06/10 06:29:30;;;;;;;1.43;1.30;;;15.30;98.00;;;;;;4994266;28;20897;-76
2022/06/10 06:31:57;;;;;;;1.30;1.20;;;15.40;98.00;;;;;;5011691;28;20466;-76
2022/06/10 06:34:25;;;;;;;2.37;1.53;;;15.40;98.00;;;;;;4977693;28;20463;-77
2022/06/10 06:36:55;;;;;;;1.50;1.40;;;15.40;98.00;;;;;;5011433;28;20460;-76
2022/06/10 06:39:26;;;;;;;2.50;1.60;;;15.60;98.00;;;;;;5011591;28;20454;-76
2022/06/10 06:41:54;;;;;;;1.90;1.60;;;15.80;98.00;;;;;;5011203;28;20948;-76
2022/06/10 06:44:21;;;;;;;2.90;1.53;;;16.00;98.00;;;;;;5011275;28;20458;-77
2022/06/10 06:46:49;;;;;;;1.23;1.10;;;16.00;98.00;;;;;;4993966;28;20455;-76
2022/06/10 06:49:19;;;;;;;1.30;1.30;;;16.00;98.00;;;;;;5011362;28;21004;-77
2022/06/10 06:51:47;;;;;;;1.80;1.40;;;16.10;98.00;;;;;;5011361;28;20831;-77
2022/06/10 06:54:15;;;;;;;2.43;1.63;;;16.20;98.00;;;;;;4993787;28;21078;-77
2022/06/10 06:56:44;;;;;;;1.83;1.53;;;16.30;98.00;;;;;;5011263;28;20554;-77
2022/06/10 06:59:11;;;;;;;1.70;1.43;;;16.50;98.00;;;;;;5011189;28;20455;-77
2022/06/10 07:01:38;;;;;;;1.50;1.30;;;16.50;98.00;;;;;;5011388;28;20510;-78
2022/06/10 07:04:06;;;;;;;1.80;1.70;;;16.60;98.00;;;;;;5011393;28;20462;-77
2022/06/10 07:06:34;;;;;;;1.87;1.50;;;16.60;98.00;;;;;;5007941;28;20487;-77
2022/06/10 07:09:02;;;;;;;2.37;1.57;;;16.70;98.00;;;;;;5008235;28;20996;-77
2022/06/10 07:11:31;;;;;;;1.70;1.60;;;16.90;98.00;;;;;;5008433;28;20473;-77
2022/06/10 07:13:59;;;;;;;2.07;1.50;;;16.90;98.00;;;;;;5008453;28;20459;-76
2022/06/10 07:16:27;;;;;;;1.40;1.30;;;17.10;98.00;;;;;;5008506;28;20458;-77
2022/06/10 07:18:54;;;;;;;1.80;1.60;;;17.10;98.00;;;;;;5008260;28;20460;-76
2022/06/10 07:21:22;;;;;;;2.87;1.87;;;17.10;98.00;;;;;;5008307;28;20473;-77
2022/06/10 07:23:50;;;;;;;1.20;1.00;;;17.10;98.00;;;;;;5008670;28;20818;-67
2022/06/10 07:26:17;;;;;;;1.60;1.37;;;17.30;98.00;;;;;;5008610;28;20463;-68
2022/06/10 07:28:45;;;;;;;2.07;1.73;;;17.80;98.00;;;;;;5008480;28;20463;-67
2022/06/10 07:31:14;;;;;;;2.03;1.47;;;18.20;98.00;;;;;;4991009;28;20489;-67
2022/06/10 07:33:41;;;;;;;3.00;1.90;;;18.60;98.00;;;;;;5010389;28;20455;-68
2022/06/10 07:36:10;;;;;;;1.53;1.50;;;19.00;98.00;;;;;;4994683;28;20468;-68
2022/06/10 07:38:38;;;;;;;1.83;1.63;;;19.40;98.00;;;;;;5012332;28;20454;-68
2022/06/10 07:43:49;;;;;;;1.70;1.67;;;19.80;98.00;;;;;;5012296;28;20520;-69
2022/06/10 07:46:21;;;;;;;1.67;1.40;;;20.00;98.00;;;;;;5012282;28;20518;-67
2022/06/10 07:48:49;;;;;;;2.00;1.50;;;20.10;98.00;;;;;;5011147;28;20845;-68
2022/06/10 07:51:17;;;;;;;1.70;1.40;;;20.20;98.00;;;;;;5009786;28;20458;-68
2022/06/10 07:53:44;;;;;;;1.83;1.60;;;20.30;98.00;;;;;;5012111;28;20483;-76
2022/06/10 07:56:14;;;;;;;2.00;1.43;;;20.30;98.00;;;;;;5011957;28;20502;-71
2022/06/10 07:58:42;;;;;;;1.93;1.73;;;20.30;98.00;;;;;;4978379;28;20514;-74
2022/06/10 08:01:09;;;;;;;1.97;1.50;;;20.00;98.00;;;;;;5012174;28;20451;-75
2022/06/10 08:03:38;;;;;;;2.20;1.83;;;19.90;98.00;;;;;;4994555;28;20495;-73
2022/06/10 08:06:06;;;;;;;2.47;1.80;;;19.60;98.00;;;;;;5011324;28;20546;-75
2022/06/10 08:08:33;;;;;;;2.67;1.80;;;19.60;98.00;;;;;;4994004;28;20974;-75
2022/06/10 08:11:00;;;;;;;2.30;1.60;;;19.70;98.00;;;;;;5011381;28;20492;-76
2022/06/10 08:13:27;;;;;;;2.33;1.70;;;19.60;98.00;;;;;;5011790;28;20455;-76
2022/06/10 08:15:55;;;;;;;4.33;1.50;;;19.50;98.00;;;;;;5011777;28;20486;-78
2022/06/10 08:18:22;;;;;;;1.80;1.57;;;19.40;98.00;;;;;;5011707;28;20541;-77
2022/06/10 08:23:37;;;;;;;1.67;1.30;;;19.50;98.00;;;;;;5004078;28;20446;-75
2022/06/10 08:26:07;;;;;;;1.53;1.50;;;19.40;98.00;;;;;;5011040;28;20946;-75
2022/06/10 08:28:35;;;;;;;3.00;1.70;;;19.50;98.00;;;;;;5010935;28;20526;-77
2022/06/10 08:31:03;;;;;;;2.87;1.90;;;19.60;98.00;;;;;;4993607;28;20535;-75
2022/06/10 08:33:30;;;;;;;1.97;1.77;;;19.70;98.00;;;;;;5010602;28;20460;-75
2022/06/10 08:36:00;;;;;;;1.80;1.70;;;19.80;98.00;;;;;;5011864;28;20460;-75
2022/06/10 08:38:29;;;;;;;1.40;1.30;;;20.00;98.00;;;;;;4995001;28;20474;-74
2022/06/10 08:41:01;;;;;;;2.50;1.87;;;20.20;98.00;;;;;;5012094;28;20456;-75
2022/06/10 08:43:47;;;;;;;1.87;1.60;;;20.30;98.00;;;;;;5011574;28;20546;-75
2022/06/10 08:46:31;;;;;;;1.67;1.47;;;20.40;98.00;;;;;;5011715;28;20467;-74
2022/06/10 08:49:22;;;;;;;1.63;1.50;;;20.50;98.00;;;;;;5011338;28;20464;-74
2022/06/10 08:51:57;;;;;;;1.77;1.37;;;20.60;98.00;;;;;;4993288;28;20856;-75
2022/06/10 08:54:31;;;;;;;4.13;1.77;;;20.90;98.00;;;;;;5011032;28;20465;-75
2022/06/10 08:57:05;;;;;;;1.63;1.50;;;21.00;98.00;;;;;;4993328;28;20461;-75
2022/06/10 08:59:38;;;;;;;2.00;1.60;;;21.10;97.90;;;;;;5010652;28;20482;-75
2022/06/10 09:02:14;;;;;;;2.63;1.53;;;21.20;98.00;;;;;;4993483;28;20467;-76
2022/06/10 09:04:52;;;;;;;2.70;1.70;;;21.10;92.70;;;;;;5010389;28;20484;-75
2022/06/10 09:07:27;;;;;;;4.57;2.07;;;21.00;91.00;;;;;;5010363;28;20516;-75
2022/06/10 09:09:56;;;;;;;2.43;1.67;;;21.10;95.80;;;;;;5010331;28;20487;-74
2022/06/10 09:12:39;;;;;;;2.77;1.90;;;21.20;93.70;;;;;;5010363;28;20946;-75
2022/06/10 09:15:08;;;;;;;2.00;1.90;;;21.40;91.30;;;;;;5010189;28;20489;-75
2022/06/10 09:17:39;;;;;;;5.87;2.23;;;21.50;92.10;;;;;;5010183;28;20855;-75
2022/06/10 09:20:12;;;;;;;1.70;1.57;;;21.50;90.50;;;;;;5009646;28;20506;-75
2022/06/10 09:25:38;;;;;;;2.20;1.60;;;21.70;92.20;;;;;;4989165;28;20475;-73
2022/06/10 09:28:07;;;;;;;2.30;1.60;;;21.90;92.00;;;;;;4993542;28;20968;-76
2022/06/10 09:30:43;;;;;;;1.80;1.40;;;22.10;91.30;;;;;;5010547;28;20813;-74
2022/06/10 09:33:15;;;;;;;2.40;1.90;;;22.30;92.30;;;;;;5009959;28;20474;-75
2022/06/10 09:35:51;;;;;;;1.83;1.63;;;22.40;91.30;;;;;;5009933;28;20459;-75
2022/06/10 09:38:26;;;;;;;3.03;2.00;;;22.70;92.90;;;;;;5009816;28;20459;-73
2022/06/10 09:41:00;;;;;;;1.77;1.63;;;22.90;91.70;;;;;;5009086;28;20463;-71
2022/06/10 09:43:57;;;;;;;1.60;1.50;;;23.10;91.50;;;;;;5008759;28;20462;-72
2022/06/10 09:46:50;;;;;;;2.20;1.90;;;23.20;91.80;;;;;;5002876;28;20459;-69
2022/06/10 09:49:39;;;;;;;1.80;1.60;;;23.10;89.50;;;;;;5007016;28;20784;-72
2022/06/10 09:52:16;;;;;;;2.70;1.60;;;23.20;90.00;;;;;;5006945;28;20467;-71
2022/06/10 09:55:08;;;;;;;3.30;1.90;;;23.40;88.80;;;;;;5009516;28;20877;-73
2022/06/10 09:57:59;;;;;;;1.70;1.40;;;23.60;86.30;;;;;;5002691;28;20475;-71
2022/06/10 10:00:33;;;;;;;1.43;1.43;;;23.70;86.80;;;;;;4994996;28;20455;-71
2022/06/10 10:03:18;;;;;;;2.10;1.93;;;23.90;85.00;;;;;;5009600;28;20459;-71
2022/06/10 10:06:01;;;;;;;1.63;1.43;;;24.00;87.80;;;;;;4992106;28;20832;-72
2022/06/10 10:08:35;;;;;;;2.40;1.70;;;24.10;86.50;;;;;;5008480;28;20467;-71
2022/06/10 10:11:14;;;;;;;2.30;2.00;;;24.30;85.30;;;;;;5001410;28;20506;-71
2022/06/10 10:13:55;;;;;;;1.90;1.40;;;24.20;82.30;;;;;;5009153;28;20931;-72
2022/06/10 10:16:40;;;;;;;2.43;2.00;;;23.80;85.50;;;;;;5009355;28;20467;-71
2022/06/10 10:19:24;;;;;;;2.57;1.80;;;23.70;85.50;;;;;;4992446;28;20452;-72
2022/06/10 10:22:02;;;;;;;4.93;2.70;;;23.60;88.20;;;;;;5009702;28;20455;-71
2022/06/10 10:24:33;;;;;;;3.67;1.90;;;23.80;87.90;;;;;;4992358;28;20490;-72
2022/06/10 10:27:02;;;;;;;1.57;1.50;;;23.80;86.00;;;;;;5009577;28;20463;-72
2022/06/10 10:29:37;;;;;;;1.97;1.60;;;23.60;85.80;;;;;;5009335;28;20814;-71
2022/06/10 10:32:11;;;;;;;3.80;2.03;;;23.70;85.80;;;;;;4991621;28;20525;-71
2022/06/10 10:34:46;;;;;;;3.63;1.83;;;24.00;88.20;;;;;;5008999;28;20471;-70
2022/06/10 10:37:22;;;;;;;1.70;1.50;;;24.30;85.20;;;;;;5002994;28;20455;-69
2022/06/10 10:39:52;;;;;;;2.13;1.70;;;24.40;86.40;;;;;;5009133;28;20490;-71
2022/06/10 10:42:33;;;;;;;2.67;1.67;;;24.20;85.80;;;;;;5009284;28;20522;-71
2022/06/10 10:45:08;;;;;;;4.63;1.90;;;24.00;83.40;;;;;;5009491;28;20455;-71
2022/06/10 10:47:37;;;;;;;2.90;1.93;;;23.60;84.40;;;;;;5009672;28;20960;-71
2022/06/10 10:50:18;;;;;;;2.83;2.00;;;23.40;84.50;;;;;;5007697;28;20487;-72
2022/06/10 10:52:48;;;;;;;1.93;1.57;;;23.30;86.60;;;;;;5009851;28;20468;-71
2022/06/10 10:55:27;;;;;;;3.40;1.90;;;23.10;85.80;;;;;;5009068;28;20550;-71
2022/06/10 10:58:17;;;;;;;2.60;1.90;;;22.90;86.90;;;;;;5009044;28;20855;-72
2022/06/10 11:00:54;;;;;;;2.10;1.70;;;22.90;88.90;;;;;;5009412;28;20487;-72
2022/06/10 11:03:27;;;;;;;2.73;2.07;;;23.20;90.50;;;;;;5009409;28;20485;-72
2022/06/10 11:05:55;;;;;;;2.07;1.73;;;23.80;86.70;;;;;;5009653;28;20468;-71
2022/06/10 11:08:25;;;;;;;2.33;1.97;;;24.10;87.20;;;;;;5010702;28;20455;-72
2022/06/10 11:11:02;;;;;;;2.27;1.90;;;23.90;86.20;;;;;;5012754;28;21027;-71
2022/06/10 11:13:47;;;;;;;2.70;1.97;;;23.90;85.20;;;;;;5012755;28;20463;-70
2022/06/10 11:16:43;;;;;;;2.23;1.80;;;23.90;83.40;;;;;;5012714;28;20459;-72
2022/06/10 11:19:18;;;;;;;1.67;1.50;;;23.90;83.40;;;;;;5006612;28;20468;-71
2022/06/10 11:22:08;;;;;;;1.80;1.50;;;24.30;85.60;;;;;;4995137;28;20466;-72
2022/06/10 11:24:37;;;;;;;2.57;1.70;;;24.80;82.90;;;;;;5012487;28;20459;-71
2022/06/10 11:27:23;;;;;;;1.93;1.50;;;24.80;82.10;;;;;;5012352;28;20946;-71
2022/06/10 11:30:07;;;;;;;1.73;1.60;;;24.70;82.80;;;;;;5009855;28;20514;-71
2022/06/10 11:32:38;;;;;;;3.40;2.10;;;24.60;84.40;;;;;;5012397;28;20474;-72
2022/06/10 11:35:23;;;;;;;3.17;1.90;;;24.70;82.40;;;;;;5012524;28;20459;-72
2022/06/10 11:37:54;;;;;;;2.50;1.90;;;25.20;84.80;;;;;;5012165;28;20455;-72
2022/06/10 11:40:24;;;;;;;1.83;1.30;;;25.70;82.00;;;;;;5012024;28;20969;-72
2022/06/10 11:42:57;;;;;;;2.40;1.90;;;25.90;79.20;;;;;;5011926;28;20555;-72
2022/06/10 11:45:28;;;;;;;3.10;1.87;;;26.20;81.60;;;;;;5012287;28;20474;-73
2022/06/10 11:48:01;;;;;;;2.30;1.80;;;26.60;79.60;;;;;;5012237;28;20466;-71
2022/06/10 11:50:33;;;;;;;1.87;1.67;;;26.80;79.80;;;;;;5009922;28;20479;-72
2022/06/10 11:53:05;;;;;;;3.83;1.93;;;27.10;80.30;;;;;;5012215;28;20507;-71
2022/06/10 11:55:36;;;;;;;2.30;1.93;;;27.30;79.40;;;;;;5011796;28;20530;-72
2022/06/10 12:01:07;;;;;;;2.87;1.97;;;27.60;77.10;;;;;;5004299;28;20450;-71
2022/06/10 12:03:42;;;;;;;2.27;1.70;;;27.70;76.40;;;;;;4994899;28;21024;-71
2022/06/10 12:06:16;;;;;;;3.23;1.70;;;28.00;77.10;;;;;;5011588;28;20867;-72
2022/06/10 12:08:49;;;;;;;2.27;1.70;;;28.30;77.90;;;;;;4994897;28;20954;-74
2022/06/10 12:11:26;;;;;;;2.83;2.03;;;28.30;73.40;;;;;;5011464;28;20551;-73
2022/06/10 12:14:01;;;;;;;2.17;1.70;;;28.20;73.50;;;;;;5011378;28;20988;-73
2022/06/10 12:16:31;;;;;;;2.03;1.60;;;28.20;74.70;;;;;;5011394;28;20459;-73
2022/06/10 12:19:01;;;;;;;2.97;1.73;;;28.10;73.70;;;;;;5010413;28;20518;-73
2022/06/10 12:21:29;;;;;;;2.93;2.10;;;27.40;73.70;;;;;;5010612;28;20465;-73
2022/06/10 12:23:58;;;;;;;2.10;1.60;;;26.90;75.80;;;;;;5010915;28;20981;-73
2022/06/10 12:26:37;;;;;;;2.60;1.90;;;26.20;76.70;;;;;;5011010;28;20980;-73
2022/06/10 12:29:11;;;;;;;2.70;1.60;;;26.50;81.20;;;;;;5010977;28;20865;-73
2022/06/10 12:31:47;;;;;;;2.77;1.87;;;26.80;75.90;;;;;;5009539;28;20499;-73
2022/06/10 12:34:24;;;;;;;4.13;2.17;;;27.50;76.80;;;;;;5011106;28;20868;-73
2022/06/10 12:36:57;;;;;;;3.80;1.77;;;28.00;75.70;;;;;;5010649;28;20470;-73
2022/06/10 12:39:36;;;;;;;1.90;1.70;;;28.50;73.40;;;;;;5010913;28;20462;-74
2022/06/10 12:42:11;;;;;;;2.13;1.77;;;28.80;73.50;;;;;;5013240;28;21100;-72
2022/06/10 12:44:51;;;;;;;3.40;1.80;;;29.20;74.30;;;;;;5013196;28;20885;-74
2022/06/10 12:47:27;;;;;;;2.23;1.80;;;29.60;71.70;;;;;;5013373;28;20459;-74
2022/06/10 12:49:58;;;;;;;3.20;2.17;;;29.70;71.70;;;;;;5013095;28;20455;-72
2022/06/10 12:52:49;;;;;;;2.17;1.90;;;29.50;71.00;;;;;;5013209;28;20488;-73
2022/06/10 12:55:25;;;;;;;5.40;1.80;;;29.80;71.60;;;;;;5012901;28;20842;-72
2022/06/10 12:57:54;;;;;;;2.57;1.70;;;29.90;67.80;;;;;;5013067;28;20469;-74
2022/06/10 13:00:38;;;;;;;1.83;1.67;;;29.70;67.40;;;;;;5012987;28;20502;-74
2022/06/10 13:03:33;;;;;;;1.60;1.50;;;29.80;67.70;;;;;;5013043;28;20470;-75
2022/06/10 13:06:25;;;;;;;2.00;1.80;;;30.00;67.80;;;;;;5012869;28;20968;-74
2022/06/10 13:08:54;;;;;;;1.70;1.70;;;30.20;67.60;;;;;;5008026;28;20460;-74
2022/06/10 13:11:38;;;;;;;3.43;1.77;;;30.40;67.60;;;;;;5013050;28;20487;-73
2022/06/10 13:14:36;;;;;;;2.40;1.77;;;30.50;70.60;;;;;;4994245;28;20470;-75
2022/06/10 13:17:22;;;;;;;2.27;1.80;;;30.50;68.00;;;;;;5012914;28;20495;-73
2022/06/10 13:20:19;;;;;;;2.20;1.70;;;29.80;69.80;;;;;;5012866;28;20485;-75
2022/06/10 13:23:09;;;;;;;2.20;1.77;;;29.90;70.90;;;;;;5012643;28;20452;-75
2022/06/10 13:25:36;;;;;;;2.30;1.80;;;30.00;69.20;;;;;;5012617;28;20463;-72
2022/06/10 13:28:05;;;;;;;1.87;1.77;;;30.20;69.70;;;;;;5012446;28;20460;-75
2022/06/10 13:30:33;;;;;;;2.23;1.70;;;30.40;70.00;;;;;;4994738;28;20460;-75
2022/06/10 13:33:06;;;;;;;2.13;2.03;;;30.30;65.00;;;;;;5012551;28;20452;-73
2022/06/10 13:35:38;;;;;;;1.77;1.67;;;30.20;65.90;;;;;;5012406;28;20458;-74
2022/06/10 13:38:14;;;;;;;2.87;1.83;;;30.20;64.90;;;;;;5012351;28;20467;-77